Time;durP1;ratioP1;P1;durP2;ratioP2;P2;SDS_P1;SDS_P2;PMS_P1;PMS_P2;Temp;Humidity;BMP_temperature;BMP_pressure;BME280_temperature;BME280_humidity;BME280_pressure;Samples;Min_cycle;Max_cycle;Signal;HPM_P1;HPM_P2
2023/08/27 00:02:21;;;;;;;9.50;6.10;;;;;;;-144.73;100.00;54489.81;5003003;28;20108;-76
2023/08/27 00:04:46;;;;;;;12.25;6.93;;;;;;;-144.73;100.00;54469.28;5019401;28;20059;-74
2023/08/27 00:07:12;;;;;;;11.95;7.07;;;;;;;-144.73;100.00;54469.28;5002399;28;20377;-74
2023/08/27 00:09:38;;;;;;;11.65;6.47;;;;;;;-144.73;100.00;54420.00;5013564;28;20113;-75
2023/08/27 00:12:04;;;;;;;17.15;6.45;;;;;;;-144.73;100.00;54461.06;5007001;28;20076;-76
2023/08/27 00:14:30;;;;;;;14.98;6.72;;;;;;;-144.73;100.00;54440.53;4991242;28;20100;-75
2023/08/27 00:16:56;;;;;;;12.73;7.03;;;;;;;-144.73;100.00;54469.28;5001605;28;20408;-75
2023/08/27 00:19:21;;;;;;;14.98;7.10;;;;;;;-144.73;100.00;54465.16;4994019;28;20285;-75
2023/08/27 00:21:48;;;;;;;14.68;6.68;;;;;;;-144.73;100.00;54493.91;5000354;28;20354;-75
2023/08/27 00:24:13;;;;;;;12.02;6.07;;;;;;;-144.73;100.00;54469.28;5005233;28;20017;-75
2023/08/27 00:26:39;;;;;;;12.07;6.40;;;;;;;-144.73;100.00;54485.69;5008636;28;20025;-76
2023/08/27 00:29:04;;;;;;;16.55;6.93;;;;;;;-144.73;100.00;54502.13;5005077;28;20064;-76
2023/08/27 00:31:30;;;;;;;15.77;6.90;;;;;;;-144.73;100.00;54465.16;5001536;28;20033;-76
2023/08/27 00:33:55;;;;;;;16.38;7.15;;;;;;;-144.73;100.00;54469.28;4994938;28;20547;-75
2023/08/27 00:36:20;;;;;;;14.07;6.82;;;;;;;-144.73;100.00;54452.84;4994413;28;20026;-75
2023/08/27 00:38:46;;;;;;;14.63;7.30;;;;;;;-144.73;100.00;54506.22;4994568;28;20557;-75
2023/08/27 00:41:12;;;;;;;16.13;7.57;;;;;;;-144.73;100.00;54469.28;5001147;28;20034;-75
2023/08/27 00:43:37;;;;;;;11.73;6.30;;;;;;;-144.73;100.00;54491.84;5000949;28;20507;-75
2023/08/27 00:46:05;;;;;;;11.60;6.63;;;;;;;-144.73;100.00;54498.00;5011364;28;20037;-75
2023/08/27 00:48:30;;;;;;;11.32;6.20;;;;;;;-144.73;100.00;54473.38;5014997;28;20040;-74
2023/08/27 00:50:57;;;;;;;13.95;6.63;;;;;;;-144.73;100.00;54481.59;4999704;28;20037;-75
2023/08/27 00:53:22;;;;;;;12.02;6.70;;;;;;;-144.73;100.00;54444.66;4994691;28;20022;-76
2023/08/27 00:55:48;;;;;;;16.98;7.15;;;;;;;-144.73;100.00;54465.16;5011398;28;20041;-75
2023/08/27 00:58:13;;;;;;;20.23;8.43;;;;;;;-144.73;100.00;54473.38;4995444;28;20085;-76
2023/08/27 01:00:39;;;;;;;12.70;7.95;;;;;;;-144.73;100.00;54481.59;4997466;28;20089;-75
2023/08/27 01:03:05;;;;;;;13.57;7.90;;;;;;;-144.73;100.00;54493.91;5005957;28;20068;-76
2023/08/27 01:05:30;;;;;;;16.58;7.88;;;;;;;-144.73;100.00;54469.28;4992300;28;20029;-77
2023/08/27 01:08:10;;;;;;;13.70;8.23;;;;;;;-144.73;100.00;54444.66;5015780;28;20106;-77
2023/08/27 01:10:46;;;;;;;13.85;7.07;;;;;;;-144.73;100.00;54428.22;5003290;28;20026;-75
2023/08/27 01:13:23;;;;;;;20.42;8.20;;;;;;;-144.73;100.00;54461.06;5007899;28;20022;-75
2023/08/27 01:16:00;;;;;;;15.88;7.43;;;;;;;-144.73;100.00;54475.44;5003422;28;20080;-76
2023/08/27 01:18:26;;;;;;;17.85;7.82;;;;;;;-144.73;100.00;54481.59;5005963;28;20032;-74
2023/08/27 01:20:51;;;;;;;12.48;6.35;;;;;;;-144.73;100.00;54493.91;5004451;28;20046;-74
2023/08/27 01:23:16;;;;;;;7.85;5.78;;;;;;;-144.73;100.00;54493.91;5015628;28;20021;-75
2023/08/27 01:25:52;;;;;;;8.40;6.13;;;;;;;-144.73;100.00;54506.22;5000787;28;20038;-75
2023/08/27 01:28:43;;;;;;;8.90;6.38;;;;;;;-144.73;100.00;54461.06;5003854;28;20017;-75
2023/08/27 01:31:16;;;;;;;14.35;6.07;;;;;;;-144.73;100.00;54498.00;5000649;28;20225;-75
2023/08/27 01:33:45;;;;;;;8.85;5.28;;;;;;;-144.73;100.00;54491.84;5006803;28;20033;-75
2023/08/27 01:36:11;;;;;;;9.90;6.05;;;;;;;-144.73;100.00;54436.44;5006899;28;20093;-77
2023/08/27 01:38:36;;;;;;;11.80;6.60;;;;;;;-144.73;100.00;54530.84;5024890;28;20056;-75
2023/08/27 01:41:02;;;;;;;12.13;6.50;;;;;;;-144.73;100.00;54489.81;4998825;28;20065;-75
2023/08/27 01:43:28;;;;;;;11.38;5.65;;;;;;;-144.73;100.00;54473.38;5005729;28;20025;-76
2023/08/27 01:45:54;;;;;;;10.07;6.10;;;;;;;-144.73;100.00;54479.53;5025137;28;20061;-76
2023/08/27 01:48:20;;;;;;;10.00;5.70;;;;;;;-144.73;100.00;54452.84;5023428;28;20045;-75
2023/08/27 01:50:45;;;;;;;12.70;6.47;;;;;;;-144.73;100.00;54454.91;5006658;28;20050;-76
2023/08/27 01:53:11;;;;;;;13.20;5.80;;;;;;;-144.73;100.00;54502.13;5000423;28;20018;-76
2023/08/27 01:55:38;;;;;;;11.20;5.90;;;;;;;-144.73;100.00;54452.84;4997304;28;20022;-76
2023/08/27 01:58:04;;;;;;;10.05;5.25;;;;;;;-144.73;100.00;54485.69;5015311;28;20022;-76
2023/08/27 02:00:29;;;;;;;11.65;5.88;;;;;;;-144.73;100.00;54465.16;5000053;28;20103;-74
2023/08/27 02:02:55;;;;;;;11.02;4.88;;;;;;;-144.73;100.00;54493.91;5018312;28;20014;-74
2023/08/27 02:05:20;;;;;;;8.80;5.30;;;;;;;-144.73;100.00;54469.28;5008276;28;20053;-74
2023/08/27 02:07:45;;;;;;;13.93;5.20;;;;;;;-144.73;100.00;54473.38;5005836;28;20017;-74
2023/08/27 02:10:11;;;;;;;8.05;5.13;;;;;;;-144.73;100.00;54498.00;5009452;28;20030;-75
2023/08/27 02:12:36;;;;;;;17.25;5.70;;;;;;;-144.73;100.00;54489.81;5007343;28;20029;-76
2023/08/27 02:15:12;;;;;;;10.93;5.93;;;;;;;-144.73;100.00;54485.69;5012498;28;20096;-76
2023/08/27 02:17:38;;;;;;;9.70;5.82;;;;;;;-144.73;100.00;54477.47;5008381;28;20105;-75
2023/08/27 02:20:07;;;;;;;9.35;5.47;;;;;;;-144.73;100.00;54465.16;5004089;28;20057;-76
2023/08/27 02:22:33;;;;;;;12.57;6.75;;;;;;;-144.73;100.00;54498.00;5009059;28;20108;-75
2023/08/27 02:24:58;;;;;;;8.85;5.53;;;;;;;-144.73;100.00;54461.06;5002308;28;20022;-75
2023/08/27 02:27:24;;;;;;;14.35;5.68;;;;;;;-144.73;100.00;54469.28;5003112;28;20025;-74
2023/08/27 02:29:49;;;;;;;15.02;6.05;;;;;;;-144.73;100.00;54514.44;4999760;28;20025;-75
2023/08/27 02:32:15;;;;;;;10.07;5.45;;;;;;;-144.73;100.00;54485.69;4999505;28;20049;-74
2023/08/27 02:34:40;;;;;;;10.65;5.72;;;;;;;-144.73;100.00;54510.31;5018467;28;20042;-74
2023/08/27 02:37:05;;;;;;;11.55;5.88;;;;;;;-144.73;100.00;54473.38;5000852;28;20400;-74
2023/08/27 02:39:40;;;;;;;8.30;6.65;;;;;;;-144.73;100.00;54481.59;5002258;28;20113;-74
2023/08/27 02:42:05;;;;;;;10.70;6.65;;;;;;;-144.73;100.00;54502.13;5014576;28;20075;-75
2023/08/27 02:44:30;;;;;;;11.13;6.00;;;;;;;-144.73;100.00;54493.91;4997968;28;20942;-75
2023/08/27 02:46:56;;;;;;;12.43;6.47;;;;;;;-144.73;100.00;54498.00;4998450;28;20018;-74
2023/08/27 02:49:21;;;;;;;15.18;6.97;;;;;;;-144.73;100.00;54526.75;5001242;28;20077;-75
2023/08/27 02:51:47;;;;;;;9.35;6.10;;;;;;;-144.73;100.00;54510.31;5016379;28;20150;-75
2023/08/27 02:54:15;;;;;;;9.52;6.03;;;;;;;-144.73;100.00;54498.00;5002967;28;20065;-75
2023/08/27 02:56:40;;;;;;;14.43;6.30;;;;;;;-144.73;100.00;54481.59;5003641;28;20018;-75
2023/08/27 02:59:06;;;;;;;11.52;6.15;;;;;;;-144.73;100.00;54452.84;5015702;28;20088;-75
2023/08/27 03:01:31;;;;;;;10.18;5.53;;;;;;;-144.73;100.00;54477.47;5000893;28;20034;-75
2023/08/27 03:03:57;;;;;;;12.45;6.20;;;;;;;-144.73;100.00;54493.91;5007639;28;20075;-75
2023/08/27 03:06:22;;;;;;;13.68;5.72;;;;;;;-144.73;100.00;54489.81;5007093;28;20037;-75
2023/08/27 03:08:47;;;;;;;7.50;5.40;;;;;;;-144.73;100.00;54493.91;4999774;28;20096;-75
2023/08/27 03:11:13;;;;;;;14.50;5.95;;;;;;;-144.73;100.00;54461.06;4997080;28;20034;-75
2023/08/27 03:13:38;;;;;;;19.17;6.13;;;;;;;-144.73;100.00;54498.00;4997933;28;20025;-75
2023/08/27 03:16:04;;;;;;;9.70;5.53;;;;;;;-144.73;100.00;54475.44;5006939;28;20034;-75
2023/08/27 03:18:29;;;;;;;10.27;5.72;;;;;;;-144.73;100.00;54465.16;5011963;28;20053;-75
2023/08/27 03:20:55;;;;;;;9.63;6.03;;;;;;;-144.73;100.00;54514.44;5006623;28;20034;-75
2023/08/27 03:23:20;;;;;;;11.68;5.22;;;;;;;-144.73;100.00;54498.00;5004411;28;20013;-75
2023/08/27 03:25:48;;;;;;;16.27;7.40;;;;;;;-144.73;100.00;54477.47;5005353;28;20037;-75
2023/08/27 03:28:20;;;;;;;9.95;6.53;;;;;;;-144.73;100.00;54477.47;5024079;28;20029;-75
2023/08/27 03:30:45;;;;;;;8.43;6.20;;;;;;;-144.73;100.00;54502.13;5017377;28;20089;-75
2023/08/27 03:33:13;;;;;;;10.95;5.60;;;;;;;-144.73;100.00;54508.28;4997726;28;20104;-75
2023/08/27 03:35:39;;;;;;;11.23;5.68;;;;;;;-144.73;100.00;54543.16;5003085;28;20129;-75
2023/08/27 03:38:04;;;;;;;9.60;6.10;;;;;;;-144.73;100.00;54473.38;5004916;28;20053;-74
2023/08/27 03:40:29;;;;;;;9.82;5.20;;;;;;;-144.73;100.00;54489.81;5004663;28;20041;-74
2023/08/27 03:42:55;;;;;;;10.50;5.60;;;;;;;-144.73;100.00;54508.28;5001464;28;20022;-76
2023/08/27 03:45:20;;;;;;;8.40;6.20;;;;;;;-144.73;100.00;54491.84;4992239;28;20030;-76
2023/08/27 03:47:45;;;;;;;9.50;5.85;;;;;;;-144.73;100.00;54510.31;5003696;28;20033;-75
2023/08/27 03:50:11;;;;;;;13.30;5.72;;;;;;;-144.73;100.00;54514.44;5014849;28;20034;-74
2023/08/27 03:52:36;;;;;;;9.38;5.85;;;;;;;-144.73;100.00;54481.59;4996732;28;20389;-75
2023/08/27 03:55:07;;;;;;;8.00;5.75;;;;;;;-144.73;100.00;54522.63;5007434;28;20038;-75
2023/08/27 03:57:35;;;;;;;8.48;5.15;;;;;;;-144.73;100.00;54539.06;4991235;28;20045;-75
2023/08/27 04:00:00;;;;;;;7.93;5.53;;;;;;;-144.73;100.00;54485.69;4994762;28;20032;-75
2023/08/27 04:02:26;;;;;;;6.60;5.43;;;;;;;-144.73;100.00;54530.84;4994263;28;20022;-75
2023/08/27 04:04:51;;;;;;;8.43;5.25;;;;;;;-144.73;100.00;54489.81;4997253;28;20062;-75
2023/08/27 04:07:17;;;;;;;11.80;6.07;;;;;;;-144.73;100.00;54489.81;4996502;28;20056;-75
2023/08/27 04:09:42;;;;;;;7.30;5.50;;;;;;;-144.73;100.00;54514.44;4993050;28;20034;-75
2023/08/27 04:12:08;;;;;;;7.70;5.40;;;;;;;-144.73;100.00;54555.47;5015747;28;20033;-75
2023/08/27 04:14:33;;;;;;;10.48;5.68;;;;;;;-144.73;100.00;54502.13;5021137;28;20116;-75
2023/08/27 04:17:01;;;;;;;10.20;5.50;;;;;;;-144.73;100.00;54448.75;5000064;28;20026;-75
2023/08/27 04:19:26;;;;;;;8.80;5.47;;;;;;;-144.73;100.00;54489.81;5008724;28;20119;-75
2023/08/27 04:21:51;;;;;;;12.93;5.72;;;;;;;-144.73;100.00;54489.81;5004949;28;20472;-76
2023/08/27 04:24:17;;;;;;;10.55;5.43;;;;;;;-144.73;100.00;54485.69;5000516;28;20021;-75
2023/08/27 04:26:43;;;;;;;8.55;5.07;;;;;;;-144.73;100.00;54539.06;4998350;28;20030;-75
2023/08/27 04:29:08;;;;;;;11.45;5.75;;;;;;;-144.73;100.00;54506.22;4998809;28;20061;-75
2023/08/27 04:31:34;;;;;;;16.25;5.93;;;;;;;-144.73;100.00;54493.91;5003845;28;20484;-75
2023/08/27 04:33:59;;;;;;;10.80;6.20;;;;;;;-144.73;100.00;54526.75;5014362;28;20029;-75
2023/08/27 04:36:25;;;;;;;10.75;5.63;;;;;;;-144.73;100.00;54481.59;5013366;28;20065;-75
2023/08/27 04:38:50;;;;;;;10.90;4.97;;;;;;;-144.73;100.00;54473.38;5016492;28;20021;-75
2023/08/27 04:41:15;;;;;;;6.75;4.35;;;;;;;-144.73;100.00;54504.16;4996262;28;20117;-75
2023/08/27 04:43:41;;;;;;;8.45;4.75;;;;;;;-144.73;100.00;54500.06;4993181;28;20101;-75
2023/08/27 04:46:06;;;;;;;10.35;5.43;;;;;;;-144.73;100.00;54489.81;4994464;28;20033;-75
2023/08/27 04:48:31;;;;;;;8.95;5.13;;;;;;;-144.73;100.00;54539.06;5010860;28;20022;-75
2023/08/27 04:50:57;;;;;;;10.00;5.35;;;;;;;-144.73;100.00;54477.47;4996516;28;20057;-75
2023/08/27 04:53:22;;;;;;;8.98;5.30;;;;;;;-144.73;100.00;54502.13;5026593;28;20026;-74
2023/08/27 04:55:48;;;;;;;9.95;5.55;;;;;;;-144.73;100.00;54510.31;5000352;28;20034;-75
2023/08/27 04:58:15;;;;;;;10.05;6.45;;;;;;;-144.73;100.00;54489.81;5003530;28;20045;-74
2023/08/27 05:00:43;;;;;;;9.23;5.97;;;;;;;-144.73;100.00;54498.00;5002980;28;20061;-74
2023/08/27 05:03:09;;;;;;;11.55;6.40;;;;;;;-144.73;100.00;54518.53;5004497;28;20372;-75
2023/08/27 05:05:35;;;;;;;12.45;6.30;;;;;;;-144.73;100.00;54493.91;5002327;28;20030;-75
2023/08/27 05:08:00;;;;;;;14.05;6.35;;;;;;;-144.73;100.00;54469.28;5008178;28;20013;-75
2023/08/27 05:10:26;;;;;;;10.07;5.43;;;;;;;-144.73;100.00;54440.53;4997658;28;20041;-75
2023/08/27 05:12:51;;;;;;;7.80;5.22;;;;;;;-144.73;100.00;54485.69;5000794;28;20104;-75
2023/08/27 05:15:20;;;;;;;9.43;5.30;;;;;;;-144.73;100.00;54514.44;5001102;28;20029;-75
2023/08/27 05:17:46;;;;;;;12.48;5.22;;;;;;;-144.73;100.00;54493.91;5006934;28;20091;-74
2023/08/27 05:20:12;;;;;;;11.38;5.65;;;;;;;-144.73;100.00;54512.38;4996724;28;20033;-74
2023/08/27 05:22:38;;;;;;;9.70;6.13;;;;;;;-144.73;100.00;54518.53;5002234;28;20539;-74
2023/08/27 05:25:04;;;;;;;7.47;4.90;;;;;;;-144.73;100.00;54493.91;4999900;28;20112;-76
2023/08/27 05:27:29;;;;;;;8.15;5.15;;;;;;;-144.73;100.00;54498.00;5001725;28;20032;-74
2023/08/27 05:29:54;;;;;;;11.48;5.30;;;;;;;-144.73;100.00;54456.97;5007403;28;20026;-74
2023/08/27 05:32:20;;;;;;;6.88;5.53;;;;;;;-144.73;100.00;54514.44;5001646;28;20515;-74
2023/08/27 05:34:45;;;;;;;12.20;6.05;;;;;;;-144.73;100.00;54510.31;4994519;28;20041;-74
2023/08/27 05:37:10;;;;;;;9.57;5.68;;;;;;;-144.73;100.00;54502.13;5013906;28;20123;-74
2023/08/27 05:39:36;;;;;;;9.48;6.25;;;;;;;-144.73;100.00;54489.81;5008083;28;20035;-74
2023/08/27 05:42:01;;;;;;;6.82;5.15;;;;;;;-144.73;100.00;54522.63;5001748;28;20476;-74
2023/08/27 05:44:27;;;;;;;6.75;5.38;;;;;;;-144.73;100.00;54506.22;5003353;28;20037;-74
2023/08/27 05:46:52;;;;;;;12.52;6.40;;;;;;;-144.73;100.00;54493.91;4999671;28;20052;-75
2023/08/27 05:49:17;;;;;;;15.32;6.03;;;;;;;-144.73;100.00;54498.00;5007125;28;20026;-74
2023/08/27 05:51:42;;;;;;;6.70;4.75;;;;;;;-144.73;100.00;54485.69;5016759;28;20491;-74
2023/08/27 05:54:08;;;;;;;8.68;4.90;;;;;;;-144.73;100.00;54498.00;5015636;28;20072;-74
2023/08/27 05:56:33;;;;;;;11.40;6.30;;;;;;;-144.73;100.00;54508.28;5004983;28;20014;-74
2023/08/27 05:58:58;;;;;;;13.70;5.78;;;;;;;-144.73;100.00;54477.47;5004674;28;20025;-74
2023/08/27 06:01:24;;;;;;;9.48;5.22;;;;;;;-144.73;100.00;54539.06;5016257;28;20033;-74
2023/08/27 06:03:49;;;;;;;8.00;5.60;;;;;;;-144.73;100.00;54473.38;4998045;28;20047;-74
2023/08/27 06:06:15;;;;;;;9.70;5.93;;;;;;;-144.73;100.00;54498.00;5016301;28;20057;-74
2023/08/27 06:08:40;;;;;;;8.25;6.10;;;;;;;-144.73;100.00;54506.22;4997888;28;20029;-74
2023/08/27 06:11:06;;;;;;;11.85;6.20;;;;;;;-144.73;100.00;54506.22;4998523;28;20068;-74
2023/08/27 06:13:32;;;;;;;8.45;5.63;;;;;;;-144.73;100.00;54506.22;4996719;28;20077;-74
2023/08/27 06:15:57;;;;;;;8.93;5.15;;;;;;;-144.73;100.00;54489.81;4996413;28;20063;-73
2023/08/27 06:18:23;;;;;;;8.63;4.03;;;;;;;-144.73;100.00;54543.16;5014794;28;20073;-74
2023/08/27 06:20:48;;;;;;;10.38;6.38;;;;;;;-144.73;100.00;54518.53;5013751;28;20030;-74
2023/08/27 06:23:15;;;;;;;8.05;5.40;;;;;;;-144.73;100.00;54514.44;4995724;28;20029;-75
2023/08/27 06:25:40;;;;;;;9.23;5.45;;;;;;;-144.73;100.00;54539.06;5000482;28;20080;-71
2023/08/27 06:28:07;;;;;;;10.43;5.28;;;;;;;-144.73;100.00;54485.69;5001384;28;20045;-71
2023/08/27 06:30:33;;;;;;;6.95;5.28;;;;;;;-144.73;100.00;54528.81;5009945;28;20030;-71
2023/08/27 06:32:59;;;;;;;13.88;5.72;;;;;;;-144.73;100.00;54514.44;5022054;28;20481;-71
2023/08/27 06:35:24;;;;;;;7.32;5.40;;;;;;;-144.73;100.00;54498.00;5004487;28;20070;-71
2023/08/27 06:37:50;;;;;;;9.00;5.63;;;;;;;-144.73;100.00;54479.53;5003201;28;20104;-71
2023/08/27 06:40:15;;;;;;;15.07;6.07;;;;;;;-144.73;100.00;54506.22;5003680;28;20034;-72
2023/08/27 06:42:41;;;;;;;7.93;5.47;;;;;;;-144.73;100.00;54498.00;5004232;28;20026;-71
2023/08/27 06:45:07;;;;;;;11.10;5.90;;;;;;;-144.73;100.00;54498.00;5021019;28;20046;-72
2023/08/27 06:47:33;;;;;;;12.25;5.57;;;;;;;-144.73;100.00;54493.91;5021790;28;20022;-72
2023/08/27 06:49:58;;;;;;;11.95;7.28;;;;;;;-144.73;100.00;54481.59;5021863;28;20033;-71
2023/08/27 06:52:23;;;;;;;7.72;5.70;;;;;;;-144.73;100.00;54493.91;5005621;28;20384;-71
2023/08/27 06:54:49;;;;;;;12.27;6.18;;;;;;;-144.73;100.00;54452.84;5002003;28;20082;-72
2023/08/27 06:57:15;;;;;;;10.02;6.40;;;;;;;-144.73;100.00;54506.22;5021448;28;20026;-72
2023/08/27 06:59:40;;;;;;;9.15;6.13;;;;;;;-144.73;100.00;54461.06;5021251;28;20033;-72
2023/08/27 07:02:06;;;;;;;8.70;5.22;;;;;;;-144.73;100.00;54604.75;5003878;28;20040;-72
2023/08/27 07:04:31;;;;;;;13.25;5.90;;;;;;;-144.73;100.00;54459.00;5002011;28;20042;-73
2023/08/27 07:06:57;;;;;;;13.00;6.00;;;;;;;-144.73;100.00;54506.22;5004822;28;20030;-72
2023/08/27 07:09:28;;;;;;;8.68;5.63;;;;;;;-144.73;100.00;54510.31;5002073;28;20053;-72
2023/08/27 07:11:53;;;;;;;8.55;5.07;;;;;;;-144.73;100.00;54539.06;5002554;28;20043;-72
2023/08/27 07:14:18;;;;;;;13.18;6.05;;;;;;;-144.73;100.00;54493.91;5018720;28;20447;-73
2023/08/27 07:16:44;;;;;;;6.90;5.15;;;;;;;-144.73;100.00;54539.06;5004728;28;20037;-72
2023/08/27 07:19:12;;;;;;;10.73;5.53;;;;;;;-144.73;100.00;54481.59;5002661;28;20101;-72
2023/08/27 07:21:38;;;;;;;6.65;4.82;;;;;;;-144.73;100.00;54498.00;5003192;28;20033;-73
2023/08/27 07:24:03;;;;;;;9.50;4.13;;;;;;;-144.73;100.00;54510.31;5004460;28;20095;-73
2023/08/27 07:26:29;;;;;;;10.23;4.60;;;;;;;-144.73;100.00;54506.22;5002499;28;20116;-72
2023/08/27 07:28:56;;;;;;;11.27;4.68;;;;;;;-144.73;100.00;54479.53;5004064;28;20159;-72
2023/08/27 07:31:21;;;;;;;12.63;3.80;;;;;;;-144.73;100.00;54489.81;5002196;28;20064;-72
2023/08/27 07:33:47;;;;;;;7.35;4.57;;;;;;;-144.73;100.00;54510.31;5006626;28;20052;-72
2023/08/27 07:36:12;;;;;;;10.07;4.03;;;;;;;-144.73;100.00;54500.06;5021649;28;20084;-72
2023/08/27 07:38:41;;;;;;;8.10;3.75;;;;;;;-144.73;100.00;54493.91;5004179;28;20025;-72
2023/08/27 07:41:11;;;;;;;6.30;3.80;;;;;;;-144.73;100.00;54465.16;5020555;28;20125;-73
2023/08/27 07:43:36;;;;;;;6.65;4.40;;;;;;;-144.73;100.00;54436.44;5002659;28;20056;-72
2023/08/27 07:46:02;;;;;;;7.05;4.05;;;;;;;-144.73;100.00;54477.47;5002898;28;20034;-72
2023/08/27 07:48:28;;;;;;;4.80;3.03;;;;;;;-144.73;100.00;54473.38;5002924;28;20026;-73
2023/08/27 07:50:53;;;;;;;10.05;3.50;;;;;;;-144.73;100.00;54481.59;5001992;28;20527;-73
2023/08/27 07:53:18;;;;;;;9.70;3.65;;;;;;;-144.73;100.00;54487.75;5005508;28;20092;-72
2023/08/27 07:55:43;;;;;;;10.50;3.33;;;;;;;-144.73;100.00;54448.75;5003809;28;20124;-73
2023/08/27 07:58:09;;;;;;;7.47;2.97;;;;;;;-144.73;100.00;54477.47;5002109;28;20029;-73
2023/08/27 08:00:34;;;;;;;9.75;3.55;;;;;;;-144.73;100.00;54502.13;4994737;28;20037;-73
2023/08/27 08:03:00;;;;;;;12.25;3.72;;;;;;;-144.73;100.00;54477.47;5024617;28;20021;-73
2023/08/27 08:05:25;;;;;;;4.20;3.15;;;;;;;-144.73;100.00;54467.22;4992662;28;20029;-73
2023/08/27 08:07:50;;;;;;;9.77;3.20;;;;;;;-144.73;100.00;54489.81;5010455;28;20048;-73
2023/08/27 08:10:16;;;;;;;6.18;3.50;;;;;;;-144.73;100.00;54485.69;5012490;28;20030;-73
2023/08/27 08:12:41;;;;;;;7.90;4.13;;;;;;;-144.73;100.00;54477.47;5018650;28;20428;-73
2023/08/27 08:15:07;;;;;;;5.43;3.33;;;;;;;-144.73;100.00;54428.22;5004806;28;20132;-73
2023/08/27 08:17:32;;;;;;;10.10;3.17;;;;;;;-144.73;100.00;54461.06;5004146;28;20033;-73
2023/08/27 08:19:58;;;;;;;9.77;3.40;;;;;;;-144.73;100.00;54448.75;5025009;28;20026;-73
2023/08/27 08:22:23;;;;;;;6.43;3.20;;;;;;;-144.73;100.00;54477.47;4994994;28;20037;-73
2023/08/27 08:24:48;;;;;;;6.60;3.28;;;;;;;-144.73;100.00;54450.81;5025907;28;20025;-71
2023/08/27 08:27:13;;;;;;;7.28;3.33;;;;;;;-144.73;100.00;54483.66;5020500;28;20488;-73
2023/08/27 08:29:39;;;;;;;10.35;3.88;;;;;;;-144.73;100.00;54440.53;5015051;28;20029;-73
2023/08/27 08:32:04;;;;;;;8.25;3.33;;;;;;;-144.73;100.00;54485.69;5004142;28;20095;-72
2023/08/27 08:34:30;;;;;;;10.77;3.70;;;;;;;-144.73;100.00;54461.06;5000347;28;20100;-72
2023/08/27 08:36:56;;;;;;;8.15;3.42;;;;;;;-144.73;100.00;54485.69;5004662;28;20017;-72
2023/08/27 08:39:24;;;;;;;7.15;3.47;;;;;;;-144.73;100.00;54473.38;5001894;28;20021;-73
2023/08/27 08:42:08;;;;;;;8.25;3.50;;;;;;;-144.73;100.00;54477.47;5000797;28;20025;-73
2023/08/27 08:45:05;;;;;;;6.07;3.60;;;;;;;-144.73;100.00;54479.53;4998070;28;20093;-73
2023/08/27 08:47:34;;;;;;;10.38;3.35;;;;;;;-144.73;100.00;54514.44;5001993;28;20936;-72
2023/08/27 08:50:05;;;;;;;10.02;3.92;;;;;;;-144.73;100.00;54479.53;5004983;28;20041;-72
2023/08/27 08:52:36;;;;;;;8.25;4.30;;;;;;;-144.73;100.00;54440.53;4992787;28;20030;-73
2023/08/27 08:55:09;;;;;;;6.03;3.40;;;;;;;-144.73;100.00;54448.75;5010103;28;20026;-72
2023/08/27 08:57:40;;;;;;;6.40;3.42;;;;;;;-144.73;100.00;54469.28;5011419;28;20026;-73
2023/08/27 09:00:08;;;;;;;8.65;4.80;;;;;;;-144.73;100.00;54461.06;5009745;28;20045;-72
2023/08/27 09:02:36;;;;;;;9.15;4.25;;;;;;;-144.73;100.00;54450.81;5010742;28;20025;-72
2023/08/27 09:05:04;;;;;;;13.48;3.97;;;;;;;-144.73;100.00;54432.31;5010031;28;20026;-73
2023/08/27 09:07:33;;;;;;;14.93;3.85;;;;;;;-144.73;100.00;54456.97;4992459;28;20033;-73
2023/08/27 09:10:01;;;;;;;4.55;3.38;;;;;;;-144.73;100.00;54465.16;5007652;28;20030;-73
2023/08/27 09:12:27;;;;;;;6.72;2.85;;;;;;;-144.73;100.00;54444.66;5001457;28;20058;-73
2023/08/27 09:14:54;;;;;;;5.97;3.13;;;;;;;-144.73;100.00;54456.97;5006774;28;20033;-73
2023/08/27 09:17:20;;;;;;;5.68;2.95;;;;;;;-144.73;100.00;54432.31;5004152;28;20033;-73
2023/08/27 09:19:46;;;;;;;5.07;3.03;;;;;;;-144.73;100.00;54465.16;4998527;28;20168;-73
2023/08/27 09:22:13;;;;;;;5.85;3.25;;;;;;;-144.73;100.00;54454.91;4998485;28;20056;-72
2023/08/27 09:24:39;;;;;;;12.00;3.42;;;;;;;-144.73;100.00;54461.06;5004741;28;20050;-73
2023/08/27 09:27:05;;;;;;;8.20;3.40;;;;;;;-144.73;100.00;54450.81;5006737;28;20029;-73
2023/08/27 09:29:33;;;;;;;8.50;3.22;;;;;;;-144.73;100.00;54477.47;4997592;28;20042;-73
2023/08/27 09:31:58;;;;;;;11.43;3.50;;;;;;;-144.73;100.00;54456.97;5006787;28;20109;-73
2023/08/27 09:34:23;;;;;;;7.10;3.03;;;;;;;-144.73;100.00;54493.91;5012207;28;20108;-73
2023/08/27 09:36:49;;;;;;;7.43;3.50;;;;;;;-144.73;100.00;54452.84;4997341;28;20109;-73
2023/08/27 09:39:15;;;;;;;6.75;3.15;;;;;;;-144.73;100.00;54424.13;4997512;28;20053;-75
2023/08/27 09:41:46;;;;;;;5.07;2.85;;;;;;;-144.73;100.00;54448.75;5019759;28;20029;-73
2023/08/27 09:44:13;;;;;;;5.13;2.83;;;;;;;-144.73;100.00;54407.69;5016103;28;20029;-75
2023/08/27 09:46:42;;;;;;;9.80;3.50;;;;;;;-144.73;100.00;54444.66;4999886;28;20034;-73
2023/08/27 09:49:08;;;;;;;4.47;3.20;;;;;;;-144.73;100.00;54448.75;5005837;28;20017;-73
2023/08/27 09:51:38;;;;;;;8.15;3.17;;;;;;;-144.73;100.00;54448.75;4999045;28;20028;-73
2023/08/27 09:54:14;;;;;;;9.45;3.60;;;;;;;-144.73;100.00;54448.75;5005361;28;20028;-73
2023/08/27 09:56:45;;;;;;;6.70;2.83;;;;;;;-144.73;100.00;54473.38;5012471;28;20057;-73
2023/08/27 09:59:14;;;;;;;8.05;3.00;;;;;;;-144.73;100.00;54444.66;4998938;28;20064;-73
2023/08/27 10:01:39;;;;;;;9.75;3.20;;;;;;;-144.73;100.00;54415.91;5012582;28;20037;-73
2023/08/27 10:04:07;;;;;;;5.28;2.97;;;;;;;-144.73;100.00;54440.53;4996145;28;20065;-73
2023/08/27 10:06:39;;;;;;;8.02;3.10;;;;;;;-144.73;100.00;54391.28;5004532;28;20048;-73
2023/08/27 10:09:04;;;;;;;7.60;2.13;;;;;;;-144.73;100.00;54440.53;5001760;28;20057;-73
2023/08/27 10:11:35;;;;;;;13.18;2.88;;;;;;;-144.73;98.51;54477.47;5018714;28;20525;-73
2023/08/27 10:14:02;;;;;;;4.20;2.58;;;;;;;-144.73;98.81;54444.66;5001404;28;20018;-73
2023/08/27 10:16:34;;;;;;;4.57;2.28;;;;;;;-144.73;98.92;54407.69;5003962;28;20026;-72
2023/08/27 10:19:01;;;;;;;6.97;2.92;;;;;;;-144.73;100.00;54454.91;5003054;28;20496;-72
2023/08/27 10:21:27;;;;;;;7.15;3.40;;;;;;;-144.73;100.00;54461.06;4995811;28;20033;-72
2023/08/27 10:23:53;;;;;;;7.20;2.83;;;;;;;-144.73;99.48;54469.28;5002546;28;20036;-72
2023/08/27 10:26:18;;;;;;;8.00;3.00;;;;;;;-144.73;100.00;54448.75;5002277;28;20033;-72
2023/08/27 10:28:45;;;;;;;7.30;2.58;;;;;;;-144.73;100.00;54465.16;4998031;28;20075;-72
2023/08/27 10:31:11;;;;;;;7.85;2.47;;;;;;;-144.73;92.90;54434.38;5003042;28;20317;-72
2023/08/27 10:33:36;;;;;;;16.55;2.95;;;;;;;-144.73;96.30;54407.69;4993661;28;20029;-72
2023/08/27 10:36:05;;;;;;;7.65;2.63;;;;;;;-144.73;97.74;54452.84;4998447;28;20034;-73
2023/08/27 10:38:34;;;;;;;6.25;2.85;;;;;;;-144.73;100.00;54420.00;4999779;28;20018;-73
2023/08/27 10:41:00;;;;;;;10.23;2.70;;;;;;;-144.73;99.33;54411.81;4993804;28;21139;-73
2023/08/27 10:43:32;;;;;;;7.50;2.53;;;;;;;-144.73;98.21;54424.13;4994784;28;20439;-73
2023/08/27 10:46:16;;;;;;;7.53;3.00;;;;;;;-144.73;98.59;54444.66;4998259;28;20129;-73
2023/08/27 10:48:49;;;;;;;5.72;2.90;;;;;;;-144.73;95.50;54432.31;4994264;28;20052;-72
2023/08/27 10:51:17;;;;;;;4.32;2.67;;;;;;;-144.73;98.22;54440.53;4995749;28;20046;-72
2023/08/27 10:53:49;;;;;;;4.78;2.30;;;;;;;-144.73;92.41;54407.69;4996840;28;20029;-72
2023/08/27 10:56:32;;;;;;;9.52;2.05;;;;;;;-144.73;90.25;54448.75;4993090;28;20051;-73
2023/08/27 10:59:12;;;;;;;8.27;2.50;;;;;;;-144.73;92.58;54383.06;4993663;28;20037;-73
2023/08/27 11:02:10;;;;;;;6.35;2.10;;;;;;;-144.73;94.48;54432.31;4992335;28;20084;-73
2023/08/27 11:04:42;;;;;;;4.50;2.58;;;;;;;-144.73;93.25;54409.75;4995556;28;20044;-73
2023/08/27 11:07:14;;;;;;;9.98;2.17;;;;;;;-144.73;95.09;54442.59;5012051;28;20021;-73